Rosehearty, United Kingdom
Current Conditions -  °F | °C
As of 10:50 PM on Thursday 20 Nov 2014 (Local Time) from EGPD Reporting Station
Scattered Clouds Scattered Clouds  
Wind Chill: 46°   Ceiling: Unl
Heat Index: 48°   Visibility: 6mi
Dew Point: 45°   Wind: 5mph
Humidity: 87%   Direction: 180°S
Pressure: 30.3"   Gusts: NA
Location:  57.7°N, 2.11°W
Report Text: EGPD 202250Z 18004KT 140V220 9999 FEW014 SCT029 09/07 Q1026
Loading
Personal Weather Stations






























Interactive Weather Map New forecast layout! Learn more

10-Day Weather Forecast

Advertisements
Track Severe Weather on mobile